sensor_id;sensor_type;location;lat;lon;timestamp;pressure;altitude;pressure_sealevel;temperature;humidity
16525;BME280;8375;33.594;-117.718;2023-04-08T00:01:47;100288.19;;;21.15;36.87
16525;BME280;8375;33.594;-117.718;2023-04-08T00:04:16;100285.88;;;21.05;38.06
16525;BME280;8375;33.594;-117.718;2023-04-08T00:06:44;100276.94;;;21.06;36.55
16525;BME280;8375;33.594;-117.718;2023-04-08T00:09:13;100274.75;;;21.10;36.93
16525;BME280;8375;33.594;-117.718;2023-04-08T00:11:43;100281.66;;;21.11;36.46
16525;BME280;8375;33.594;-117.718;2023-04-08T00:14:12;100277.69;;;21.00;37.83
16525;BME280;8375;33.594;-117.718;2023-04-08T00:16:41;100273.06;;;21.02;38.27
16525;BME280;8375;33.594;-117.718;2023-04-08T00:19:09;100272.53;;;20.92;38.82
16525;BME280;8375;33.594;-117.718;2023-04-08T00:21:38;100274.97;;;20.93;38.45
16525;BME280;8375;33.594;-117.718;2023-04-08T00:24:07;100277.97;;;20.90;38.84
16525;BME280;8375;33.594;-117.718;2023-04-08T00:26:36;100279.91;;;20.81;39.12
16525;BME280;8375;33.594;-117.718;2023-04-08T00:29:06;100287.25;;;20.71;39.28
16525;BME280;8375;33.594;-117.718;2023-04-08T00:31:35;100282.53;;;20.51;39.37
16525;BME280;8375;33.594;-117.718;2023-04-08T00:34:03;100281.88;;;20.49;40.32
16525;BME280;8375;33.594;-117.718;2023-04-08T00:36:32;100282.59;;;20.58;40.43
16525;BME280;8375;33.594;-117.718;2023-04-08T00:39:01;100284.25;;;20.59;40.09
16525;BME280;8375;33.594;-117.718;2023-04-08T00:41:33;100283.34;;;20.67;39.57
16525;BME280;8375;33.594;-117.718;2023-04-08T00:44:01;100281.41;;;20.76;39.40
16525;BME280;8375;33.594;-117.718;2023-04-08T00:46:35;100287.34;;;20.78;38.06
16525;BME280;8375;33.594;-117.718;2023-04-08T00:49:03;100294.97;;;20.73;37.68
16525;BME280;8375;33.594;-117.718;2023-04-08T00:51:33;100297.16;;;20.54;38.06
16525;BME280;8375;33.594;-117.718;2023-04-08T00:54:02;100288.97;;;20.49;37.46
16525;BME280;8375;33.594;-117.718;2023-04-08T00:56:32;100299.16;;;20.52;36.15
16525;BME280;8375;33.594;-117.718;2023-04-08T00:59:01;100288.81;;;20.50;37.68
16525;BME280;8375;33.594;-117.718;2023-04-08T01:01:36;100283.41;;;20.44;38.31
16525;BME280;8375;33.594;-117.718;2023-04-08T01:04:15;100291.69;;;20.41;39.09
16525;BME280;8375;33.594;-117.718;2023-04-08T01:06:50;100292.59;;;20.33;38.79
16525;BME280;8375;33.594;-117.718;2023-04-08T01:09:26;100289.22;;;20.24;39.69
16525;BME280;8375;33.594;-117.718;2023-04-08T01:11:56;100292.03;;;20.22;40.01
16525;BME280;8375;33.594;-117.718;2023-04-08T01:14:27;100296.56;;;20.14;39.55
16525;BME280;8375;33.594;-117.718;2023-04-08T01:16:59;100283.72;;;19.96;40.61
16525;BME280;8375;33.594;-117.718;2023-04-08T01:19:32;100287.88;;;19.90;40.68
16525;BME280;8375;33.594;-117.718;2023-04-08T01:22:08;100294.47;;;19.86;40.85
16525;BME280;8375;33.594;-117.718;2023-04-08T01:24:42;100283.97;;;19.77;41.74
16525;BME280;8375;33.594;-117.718;2023-04-08T01:27:13;100296.56;;;19.67;42.66
16525;BME280;8375;33.594;-117.718;2023-04-08T01:29:43;100294.69;;;19.53;44.41
16525;BME280;8375;33.594;-117.718;2023-04-08T01:32:13;100302.34;;;19.39;45.82
16525;BME280;8375;33.594;-117.718;2023-04-08T01:34:44;100301.47;;;19.15;46.60
16525;BME280;8375;33.594;-117.718;2023-04-08T01:37:14;100307.13;;;18.96;46.65
16525;BME280;8375;33.594;-117.718;2023-04-08T01:39:44;100301.94;;;18.79;47.07
16525;BME280;8375;33.594;-117.718;2023-04-08T01:42:15;100304.59;;;18.71;47.76
16525;BME280;8375;33.594;-117.718;2023-04-08T01:44:44;100307.75;;;18.58;48.16
16525;BME280;8375;33.594;-117.718;2023-04-08T01:47:14;100312.34;;;18.47;48.68
16525;BME280;8375;33.594;-117.718;2023-04-08T01:49:43;100313.69;;;18.35;49.23
16525;BME280;8375;33.594;-117.718;2023-04-08T01:52:14;100305.66;;;18.20;48.40
16525;BME280;8375;33.594;-117.718;2023-04-08T01:54:44;100309.09;;;18.04;48.69
16525;BME280;8375;33.594;-117.718;2023-04-08T01:57:18;100311.53;;;17.81;48.69
16525;BME280;8375;33.594;-117.718;2023-04-08T01:59:49;100326.44;;;17.72;46.90
16525;BME280;8375;33.594;-117.718;2023-04-08T02:02:19;100320.50;;;17.53;46.53
16525;BME280;8375;33.594;-117.718;2023-04-08T02:04:49;100321.06;;;17.22;46.98
16525;BME280;8375;33.594;-117.718;2023-04-08T02:07:18;100321.22;;;17.12;46.02
16525;BME280;8375;33.594;-117.718;2023-04-08T02:09:46;100324.13;;;17.01;46.32
16525;BME280;8375;33.594;-117.718;2023-04-08T02:12:17;100321.06;;;16.88;45.49
16525;BME280;8375;33.594;-117.718;2023-04-08T02:14:46;100323.09;;;16.67;46.26
16525;BME280;8375;33.594;-117.718;2023-04-08T02:17:20;100320.72;;;16.56;46.02
16525;BME280;8375;33.594;-117.718;2023-04-08T02:19:58;100324.88;;;16.40;46.73
16525;BME280;8375;33.594;-117.718;2023-04-08T02:22:33;100322.22;;;16.32;47.49
16525;BME280;8375;33.594;-117.718;2023-04-08T02:25:08;100331.28;;;16.20;48.12
16525;BME280;8375;33.594;-117.718;2023-04-08T02:27:40;100334.13;;;16.08;48.54
16525;BME280;8375;33.594;-117.718;2023-04-08T02:30:11;100327.06;;;16.01;49.21
16525;BME280;8375;33.594;-117.718;2023-04-08T02:32:41;100334.97;;;15.91;49.47
16525;BME280;8375;33.594;-117.718;2023-04-08T02:35:11;100338.81;;;15.87;50.40
16525;BME280;8375;33.594;-117.718;2023-04-08T02:37:40;100333.34;;;15.80;50.57
16525;BME280;8375;33.594;-117.718;2023-04-08T02:40:24;100329.16;;;15.69;51.61
16525;BME280;8375;33.594;-117.718;2023-04-08T02:42:55;100329.22;;;15.59;53.04
16525;BME280;8375;33.594;-117.718;2023-04-08T02:45:27;100336.31;;;15.49;54.18
16525;BME280;8375;33.594;-117.718;2023-04-08T02:47:58;100343.94;;;15.42;54.89
16525;BME280;8375;33.594;-117.718;2023-04-08T02:50:27;100351.22;;;15.38;55.43
16525;BME280;8375;33.594;-117.718;2023-04-08T02:52:56;100357.19;;;15.31;56.10
16525;BME280;8375;33.594;-117.718;2023-04-08T02:55:24;100361.78;;;15.19;56.77
16525;BME280;8375;33.594;-117.718;2023-04-08T02:57:55;100355.47;;;15.11;57.42
16525;BME280;8375;33.594;-117.718;2023-04-08T03:00:23;100366.78;;;15.02;58.22
16525;BME280;8375;33.594;-117.718;2023-04-08T03:02:53;100362.13;;;14.96;59.05
16525;BME280;8375;33.594;-117.718;2023-04-08T03:05:22;100354.59;;;14.93;59.10
16525;BME280;8375;33.594;-117.718;2023-04-08T03:07:51;100357.19;;;14.93;59.96
16525;BME280;8375;33.594;-117.718;2023-04-08T03:10:19;100353.50;;;14.86;59.45
16525;BME280;8375;33.594;-117.718;2023-04-08T03:12:48;100355.75;;;14.61;60.53
16525;BME280;8375;33.594;-117.718;2023-04-08T03:15:18;100357.78;;;14.67;60.14
16525;BME280;8375;33.594;-117.718;2023-04-08T03:17:47;100368.25;;;14.67;60.56
16525;BME280;8375;33.594;-117.718;2023-04-08T03:20:16;100364.94;;;14.65;60.56
16525;BME280;8375;33.594;-117.718;2023-04-08T03:22:44;100362.50;;;14.63;60.75
16525;BME280;8375;33.594;-117.718;2023-04-08T03:25:13;100360.84;;;14.62;60.28
16525;BME280;8375;33.594;-117.718;2023-04-08T03:27:42;100364.69;;;14.58;60.73
16525;BME280;8375;33.594;-117.718;2023-04-08T03:30:11;100354.38;;;14.57;61.05
16525;BME280;8375;33.594;-117.718;2023-04-08T03:32:41;100356.69;;;14.60;61.32
16525;BME280;8375;33.594;-117.718;2023-04-08T03:35:09;100355.50;;;14.54;61.36
16525;BME280;8375;33.594;-117.718;2023-04-08T03:37:38;100367.19;;;14.50;61.39
16525;BME280;8375;33.594;-117.718;2023-04-08T03:40:08;100371.31;;;14.43;61.75
16525;BME280;8375;33.594;-117.718;2023-04-08T03:42:37;100378.75;;;14.37;61.90
16525;BME280;8375;33.594;-117.718;2023-04-08T03:45:06;100377.66;;;14.30;62.37
16525;BME280;8375;33.594;-117.718;2023-04-08T03:47:35;100382.31;;;14.27;62.77
16525;BME280;8375;33.594;-117.718;2023-04-08T03:50:06;100386.56;;;14.28;62.65
16525;BME280;8375;33.594;-117.718;2023-04-08T03:52:35;100389.72;;;14.21;62.81
16525;BME280;8375;33.594;-117.718;2023-04-08T03:55:04;100382.16;;;14.18;63.34
16525;BME280;8375;33.594;-117.718;2023-04-08T03:57:33;100404.56;;;14.11;63.45
16525;BME280;8375;33.594;-117.718;2023-04-08T04:00:02;100395.75;;;14.12;63.88
16525;BME280;8375;33.594;-117.718;2023-04-08T04:02:30;100392.47;;;14.10;64.21
16525;BME280;8375;33.594;-117.718;2023-04-08T04:04:59;100397.28;;;14.05;64.25
16525;BME280;8375;33.594;-117.718;2023-04-08T04:07:29;100385.34;;;14.02;63.91
16525;BME280;8375;33.594;-117.718;2023-04-08T04:09:58;100393.16;;;14.02;64.15
16525;BME280;8375;33.594;-117.718;2023-04-08T04:12:27;100393.44;;;13.99;63.95
16525;BME280;8375;33.594;-117.718;2023-04-08T04:14:55;100394.66;;;13.95;64.59
16525;BME280;8375;33.594;-117.718;2023-04-08T04:17:24;100402.63;;;13.93;64.33
16525;BME280;8375;33.594;-117.718;2023-04-08T04:19:53;100415.13;;;13.90;64.63
16525;BME280;8375;33.594;-117.718;2023-04-08T04:22:21;100425.78;;;13.77;65.37
16525;BME280;8375;33.594;-117.718;2023-04-08T04:24:52;100425.25;;;13.73;65.39
16525;BME280;8375;33.594;-117.718;2023-04-08T04:27:20;100427.28;;;13.70;65.97
16525;BME280;8375;33.594;-117.718;2023-04-08T04:29:49;100430.16;;;13.67;66.24
16525;BME280;8375;33.594;-117.718;2023-04-08T04:32:18;100437.28;;;13.64;66.52
16525;BME280;8375;33.594;-117.718;2023-04-08T04:34:46;100433.16;;;13.62;66.49
16525;BME280;8375;33.594;-117.718;2023-04-08T04:37:15;100437.44;;;13.63;66.44
16525;BME280;8375;33.594;-117.718;2023-04-08T04:39:44;100435.91;;;13.60;66.23
16525;BME280;8375;33.594;-117.718;2023-04-08T04:42:14;100429.28;;;13.56;66.22
16525;BME280;8375;33.594;-117.718;2023-04-08T04:44:43;100429.28;;;13.56;66.17
16525;BME280;8375;33.594;-117.718;2023-04-08T04:47:11;100429.81;;;13.50;65.98
16525;BME280;8375;33.594;-117.718;2023-04-08T04:49:41;100429.28;;;13.56;65.91
16525;BME280;8375;33.594;-117.718;2023-04-08T04:52:11;100436.00;;;13.49;66.02
16525;BME280;8375;33.594;-117.718;2023-04-08T04:54:39;100436.25;;;13.46;66.09
16525;BME280;8375;33.594;-117.718;2023-04-08T04:57:08;100443.06;;;13.37;66.42
16525;BME280;8375;33.594;-117.718;2023-04-08T04:59:39;100458.44;;;13.40;66.57
16525;BME280;8375;33.594;-117.718;2023-04-08T05:02:08;100463.22;;;13.35;67.37
16525;BME280;8375;33.594;-117.718;2023-04-08T05:04:37;100458.53;;;13.29;67.40
16525;BME280;8375;33.594;-117.718;2023-04-08T05:07:05;100460.56;;;13.25;66.47
16525;BME280;8375;33.594;-117.718;2023-04-08T05:09:34;100464.19;;;13.13;67.54
16525;BME280;8375;33.594;-117.718;2023-04-08T05:12:03;100467.06;;;13.10;67.99
16525;BME280;8375;33.594;-117.718;2023-04-08T05:14:32;100474.03;;;13.09;68.17
16525;BME280;8375;33.594;-117.718;2023-04-08T05:17:02;100467.06;;;13.10;68.59
16525;BME280;8375;33.594;-117.718;2023-04-08T05:19:31;100463.22;;;13.14;67.83
16525;BME280;8375;33.594;-117.718;2023-04-08T05:22:00;100453.00;;;13.01;67.96
16525;BME280;8375;33.594;-117.718;2023-04-08T05:24:29;100456.00;;;12.96;68.07
16525;BME280;8375;33.594;-117.718;2023-04-08T05:26:58;100462.28;;;12.94;68.16
16525;BME280;8375;33.594;-117.718;2023-04-08T05:29:26;100462.91;;;12.86;68.27
16525;BME280;8375;33.594;-117.718;2023-04-08T05:31:55;100471.59;;;12.75;69.04
16525;BME280;8375;33.594;-117.718;2023-04-08T05:34:25;100467.47;;;12.72;69.03
16525;BME280;8375;33.594;-117.718;2023-04-08T05:36:54;100470.19;;;12.71;69.38
16525;BME280;8375;33.594;-117.718;2023-04-08T05:39:22;100473.06;;;12.68;69.68
16525;BME280;8375;33.594;-117.718;2023-04-08T05:41:51;100457.69;;;12.65;69.66
16525;BME280;8375;33.594;-117.718;2023-04-08T05:44:20;100455.66;;;12.68;70.31
16525;BME280;8375;33.594;-117.718;2023-04-08T05:46:49;100455.31;;;12.61;70.02
16525;BME280;8375;33.594;-117.718;2023-04-08T05:49:18;100460.88;;;12.68;70.18
16525;BME280;8375;33.594;-117.718;2023-04-08T05:51:48;100461.56;;;12.70;70.58
16525;BME280;8375;33.594;-117.718;2023-04-08T05:54:17;100467.84;;;12.68;69.98
16525;BME280;8375;33.594;-117.718;2023-04-08T05:56:45;100461.56;;;12.70;70.60
16525;BME280;8375;33.594;-117.718;2023-04-08T05:59:14;100454.31;;;12.74;71.34
16525;BME280;8375;33.594;-117.718;2023-04-08T06:01:43;100465.69;;;12.73;70.97
16525;BME280;8375;33.594;-117.718;2023-04-08T06:04:11;100456.88;;;12.64;70.83
16525;BME280;8375;33.594;-117.718;2023-04-08T06:06:40;100455.72;;;12.57;71.35
16525;BME280;8375;33.594;-117.718;2023-04-08T06:09:10;100459.28;;;12.56;72.11
16525;BME280;8375;33.594;-117.718;2023-04-08T06:11:39;100461.41;;;12.51;72.06
16525;BME280;8375;33.594;-117.718;2023-04-08T06:14:08;100471.63;;;12.42;72.10
16525;BME280;8375;33.594;-117.718;2023-04-08T06:16:36;100470.47;;;12.35;72.28
16525;BME280;8375;33.594;-117.718;2023-04-08T06:19:05;100468.91;;;12.32;73.05
16525;BME280;8375;33.594;-117.718;2023-04-08T06:21:33;100462.91;;;12.32;73.32
16525;BME280;8375;33.594;-117.718;2023-04-08T06:24:02;100463.63;;;12.23;72.86
16525;BME280;8375;33.594;-117.718;2023-04-08T06:26:33;100463.88;;;12.20;73.61
16525;BME280;8375;33.594;-117.718;2023-04-08T06:29:01;100467.06;;;12.12;73.69
16525;BME280;8375;33.594;-117.718;2023-04-08T06:31:30;100461.66;;;12.03;73.74
16525;BME280;8375;33.594;-117.718;2023-04-08T06:33:59;100465.56;;;11.98;74.09
16525;BME280;8375;33.594;-117.718;2023-04-08T06:36:28;100465.19;;;11.91;74.83
16525;BME280;8375;33.594;-117.718;2023-04-08T06:38:57;100458.47;;;11.88;75.34
16525;BME280;8375;33.594;-117.718;2023-04-08T06:41:25;100461.31;;;11.85;75.79
16525;BME280;8375;33.594;-117.718;2023-04-08T06:43:56;100470.06;;;11.84;75.92
16525;BME280;8375;33.594;-117.718;2023-04-08T06:46:24;100468.03;;;11.77;76.41
16525;BME280;8375;33.594;-117.718;2023-04-08T06:48:53;100468.88;;;11.77;76.59
16525;BME280;8375;33.594;-117.718;2023-04-08T06:51:22;100470.53;;;11.78;77.24
16525;BME280;8375;33.594;-117.718;2023-04-08T06:53:51;100471.59;;;11.76;76.86
16525;BME280;8375;33.594;-117.718;2023-04-08T06:56:20;100473.25;;;11.65;77.20
16525;BME280;8375;33.594;-117.718;2023-04-08T06:58:48;100476.78;;;11.53;78.11
16525;BME280;8375;33.594;-117.718;2023-04-08T07:01:19;100474.66;;;11.47;78.80
16525;BME280;8375;33.594;-117.718;2023-04-08T07:03:47;100478.91;;;11.48;78.23
16525;BME280;8375;33.594;-117.718;2023-04-08T07:06:16;100477.88;;;11.50;78.08
16525;BME280;8375;33.594;-117.718;2023-04-08T07:08:45;100485.19;;;11.45;78.50
16525;BME280;8375;33.594;-117.718;2023-04-08T07:11:13;100482.56;;;11.34;78.97
16525;BME280;8375;33.594;-117.718;2023-04-08T07:13:42;100476.66;;;11.32;78.85
16525;BME280;8375;33.594;-117.718;2023-04-08T07:16:11;100480.78;;;11.34;79.70
16525;BME280;8375;33.594;-117.718;2023-04-08T07:18:41;100483.28;;;11.36;80.27
16525;BME280;8375;33.594;-117.718;2023-04-08T07:21:10;100489.06;;;11.39;80.01
16525;BME280;8375;33.594;-117.718;2023-04-08T07:23:38;100492.50;;;11.40;80.79
16525;BME280;8375;33.594;-117.718;2023-04-08T07:26:07;100492.75;;;11.37;80.70
16525;BME280;8375;33.594;-117.718;2023-04-08T07:28:35;100490.84;;;11.27;80.74
16525;BME280;8375;33.594;-117.718;2023-04-08T07:31:11;100490.22;;;11.24;80.56
16525;BME280;8375;33.594;-117.718;2023-04-08T07:33:42;100488.78;;;11.20;80.46
16525;BME280;8375;33.594;-117.718;2023-04-08T07:36:12;100483.25;;;11.13;80.42
16525;BME280;8375;33.594;-117.718;2023-04-08T07:38:41;100482.03;;;11.06;80.72
16525;BME280;8375;33.594;-117.718;2023-04-08T07:41:09;100478.03;;;11.02;80.71
16525;BME280;8375;33.594;-117.718;2023-04-08T07:43:38;100478.25;;;10.98;80.75
16525;BME280;8375;33.594;-117.718;2023-04-08T07:46:07;100482.03;;;10.94;81.08
16525;BME280;8375;33.594;-117.718;2023-04-08T07:48:36;100475.41;;;10.90;81.13
16525;BME280;8375;33.594;-117.718;2023-04-08T07:51:06;100475.50;;;10.89;81.67
16525;BME280;8375;33.594;-117.718;2023-04-08T07:53:35;100480.22;;;10.95;82.60
16525;BME280;8375;33.594;-117.718;2023-04-08T07:56:10;100473.28;;;10.95;83.30
16525;BME280;8375;33.594;-117.718;2023-04-08T07:58:39;100475.03;;;10.95;83.72
16525;BME280;8375;33.594;-117.718;2023-04-08T08:01:15;100470.06;;;10.92;83.20
16525;BME280;8375;33.594;-117.718;2023-04-08T08:03:44;100463.34;;;10.89;83.23
16525;BME280;8375;33.594;-117.718;2023-04-08T08:06:14;100463.91;;;10.81;83.25
16525;BME280;8375;33.594;-117.718;2023-04-08T08:08:43;100450.56;;;10.75;82.43
16525;BME280;8375;33.594;-117.718;2023-04-08T08:11:12;100448.06;;;10.73;82.65
16525;BME280;8375;33.594;-117.718;2023-04-08T08:13:41;100451.81;;;10.69;82.82
16525;BME280;8375;33.594;-117.718;2023-04-08T08:16:09;100448.97;;;10.61;83.02
16525;BME280;8375;33.594;-117.718;2023-04-08T08:18:38;100451.56;;;10.61;83.69
16525;BME280;8375;33.594;-117.718;2023-04-08T08:21:07;100463.91;;;10.57;83.64
16525;BME280;8375;33.594;-117.718;2023-04-08T08:23:37;100456.25;;;10.55;83.79
16525;BME280;8375;33.594;-117.718;2023-04-08T08:26:07;100459.06;;;10.52;83.76
16525;BME280;8375;33.594;-117.718;2023-04-08T08:28:36;100455.97;;;10.47;83.44
16525;BME280;8375;33.594;-117.718;2023-04-08T08:31:05;100452.66;;;10.45;83.76
16525;BME280;8375;33.594;-117.718;2023-04-08T08:33:34;100452.88;;;10.42;84.08
16525;BME280;8375;33.594;-117.718;2023-04-08T08:36:03;100458.38;;;10.37;84.57
16525;BME280;8375;33.594;-117.718;2023-04-08T08:38:32;100448.41;;;10.44;85.80
16525;BME280;8375;33.594;-117.718;2023-04-08T08:41:02;100447.47;;;10.45;86.17
16525;BME280;8375;33.594;-117.718;2023-04-08T08:43:31;100449.44;;;10.41;85.71
16525;BME280;8375;33.594;-117.718;2023-04-08T08:46:00;100442.19;;;10.34;85.78
16525;BME280;8375;33.594;-117.718;2023-04-08T08:48:29;100440.63;;;10.31;85.88
16525;BME280;8375;33.594;-117.718;2023-04-08T08:50:58;100445.84;;;10.31;85.42
16525;BME280;8375;33.594;-117.718;2023-04-08T08:53:29;100439.44;;;10.24;85.75
16525;BME280;8375;33.594;-117.718;2023-04-08T08:55:59;100436.78;;;10.37;88.14
16525;BME280;8375;33.594;-117.718;2023-04-08T08:58:29;100426.13;;;10.28;87.19
16525;BME280;8375;33.594;-117.718;2023-04-08T09:00:58;100427.63;;;10.20;86.78
16525;BME280;8375;33.594;-117.718;2023-04-08T09:03:27;100438.44;;;10.13;86.56
16525;BME280;8375;33.594;-117.718;2023-04-08T09:05:56;100439.38;;;10.12;87.88
16525;BME280;8375;33.594;-117.718;2023-04-08T09:08:27;100441.03;;;10.13;88.14
16525;BME280;8375;33.594;-117.718;2023-04-08T09:11:09;100436.50;;;10.04;87.66
16525;BME280;8375;33.594;-117.718;2023-04-08T09:13:40;100443.44;;;10.04;88.30
16525;BME280;8375;33.594;-117.718;2023-04-08T09:16:09;100444.59;;;10.00;88.37
16525;BME280;8375;33.594;-117.718;2023-04-08T09:18:39;100445.84;;;9.94;87.82
16525;BME280;8375;33.594;-117.718;2023-04-08T09:21:10;100439.66;;;9.83;87.82
16525;BME280;8375;33.594;-117.718;2023-04-08T09:23:41;100443.91;;;9.84;88.36
16525;BME280;8375;33.594;-117.718;2023-04-08T09:26:10;100441.53;;;9.81;88.11
16525;BME280;8375;33.594;-117.718;2023-04-08T09:28:41;100436.56;;;9.78;87.60
16525;BME280;8375;33.594;-117.718;2023-04-08T09:31:20;100431.59;;;9.75;87.98
16525;BME280;8375;33.594;-117.718;2023-04-08T09:33:49;100438.44;;;9.76;88.25
16525;BME280;8375;33.594;-117.718;2023-04-08T09:36:18;100420.19;;;9.65;88.97
16525;BME280;8375;33.594;-117.718;2023-04-08T09:38:47;100427.47;;;9.60;89.49
16525;BME280;8375;33.594;-117.718;2023-04-08T09:41:16;100423.50;;;9.67;90.43
16525;BME280;8375;33.594;-117.718;2023-04-08T09:43:50;100427.75;;;9.68;90.18
16525;BME280;8375;33.594;-117.718;2023-04-08T09:46:25;100425.06;;;9.69;90.48
16525;BME280;8375;33.594;-117.718;2023-04-08T09:49:06;100414.19;;;9.64;89.55
16525;BME280;8375;33.594;-117.718;2023-04-08T09:51:42;100429.53;;;9.67;90.66
16525;BME280;8375;33.594;-117.718;2023-04-08T09:54:13;100417.31;;;9.69;90.43
16525;BME280;8375;33.594;-117.718;2023-04-08T09:56:48;100418.75;;;9.61;90.23
16525;BME280;8375;33.594;-117.718;2023-04-08T09:59:21;100416.50;;;9.56;90.86
16525;BME280;8375;33.594;-117.718;2023-04-08T10:01:53;100422.81;;;9.52;90.75
16525;BME280;8375;33.594;-117.718;2023-04-08T10:04:25;100416.91;;;9.50;90.18
16525;BME280;8375;33.594;-117.718;2023-04-08T10:06:59;100420.03;;;9.42;90.45
16525;BME280;8375;33.594;-117.718;2023-04-08T10:09:32;100417.66;;;9.39;90.70
16525;BME280;8375;33.594;-117.718;2023-04-08T10:12:01;100424.69;;;9.37;90.83
16525;BME280;8375;33.594;-117.718;2023-04-08T10:14:33;100425.75;;;9.34;91.30
16525;BME280;8375;33.594;-117.718;2023-04-08T10:17:23;100420.78;;;9.31;90.99
16525;BME280;8375;33.594;-117.718;2023-04-08T10:19:52;100421.78;;;9.29;91.03
16525;BME280;8375;33.594;-117.718;2023-04-08T10:22:45;100421.78;;;9.29;91.00
16525;BME280;8375;33.594;-117.718;2023-04-08T10:25:29;100426.97;;;9.29;90.47
16525;BME280;8375;33.594;-117.718;2023-04-08T10:27:58;100421.28;;;9.23;90.55
16525;BME280;8375;33.594;-117.718;2023-04-08T10:30:42;100421.72;;;9.30;91.75
16525;BME280;8375;33.594;-117.718;2023-04-08T10:33:12;100422.00;;;9.25;91.45
16525;BME280;8375;33.594;-117.718;2023-04-08T10:35:42;100417.16;;;9.21;91.78
16525;BME280;8375;33.594;-117.718;2023-04-08T10:38:12;100426.88;;;9.17;91.86
16525;BME280;8375;33.594;-117.718;2023-04-08T10:40:42;100414.22;;;9.25;93.24
16525;BME280;8375;33.594;-117.718;2023-04-08T10:43:12;100418.19;;;9.31;94.40
16525;BME280;8375;33.594;-117.718;2023-04-08T10:45:43;100417.75;;;9.24;93.56
16525;BME280;8375;33.594;-117.718;2023-04-08T10:48:17;100413.63;;;9.22;93.08
16525;BME280;8375;33.594;-117.718;2023-04-08T10:50:54;100417.25;;;9.19;93.43
16525;BME280;8375;33.594;-117.718;2023-04-08T10:53:27;100411.53;;;9.14;93.29
16525;BME280;8375;33.594;-117.718;2023-04-08T10:56:03;100411.88;;;9.09;93.22
16525;BME280;8375;33.594;-117.718;2023-04-08T10:58:32;100413.00;;;9.05;93.82
16525;BME280;8375;33.594;-117.718;2023-04-08T11:01:06;100406.97;;;8.92;94.66
16525;BME280;8375;33.594;-117.718;2023-04-08T11:03:35;100405.94;;;8.94;94.05
16525;BME280;8375;33.594;-117.718;2023-04-08T11:06:04;100411.53;;;8.88;93.64
16525;BME280;8375;33.594;-117.718;2023-04-08T11:08:33;100410.91;;;8.85;93.77
16525;BME280;8375;33.594;-117.718;2023-04-08T11:11:03;100407.28;;;8.87;94.29
16525;BME280;8375;33.594;-117.718;2023-04-08T11:13:35;100405.41;;;8.89;94.72
16525;BME280;8375;33.594;-117.718;2023-04-08T11:16:06;100406.34;;;8.88;95.04
16525;BME280;8375;33.594;-117.718;2023-04-08T11:18:35;100412.66;;;8.84;95.37
16525;BME280;8375;33.594;-117.718;2023-04-08T11:21:08;100409.34;;;8.82;96.01
16525;BME280;8375;33.594;-117.718;2023-04-08T11:23:37;100409.06;;;8.87;95.96
16525;BME280;8375;33.594;-117.718;2023-04-08T11:26:05;100409.13;;;8.85;95.85
16525;BME280;8375;33.594;-117.718;2023-04-08T11:28:34;100405.28;;;8.78;96.01
16525;BME280;8375;33.594;-117.718;2023-04-08T11:31:05;100403.75;;;8.75;96.76
16525;BME280;8375;33.594;-117.718;2023-04-08T11:33:34;100410.69;;;8.75;96.96
16525;BME280;8375;33.594;-117.718;2023-04-08T11:36:04;100415.84;;;8.75;96.95
16525;BME280;8375;33.594;-117.718;2023-04-08T11:38:38;100414.31;;;8.72;97.32
16525;BME280;8375;33.594;-117.718;2023-04-08T11:41:08;100405.81;;;8.70;96.97
16525;BME280;8375;33.594;-117.718;2023-04-08T11:43:37;100407.69;;;8.68;96.78
16525;BME280;8375;33.594;-117.718;2023-04-08T11:46:11;100406.84;;;8.68;96.62
16525;BME280;8375;33.594;-117.718;2023-04-08T11:48:40;100402.78;;;8.63;96.31
16525;BME280;8375;33.594;-117.718;2023-04-08T11:51:09;100403.84;;;8.61;96.71
16525;BME280;8375;33.594;-117.718;2023-04-08T11:53:37;100411.47;;;8.62;97.17
16525;BME280;8375;33.594;-117.718;2023-04-08T11:56:16;100404.44;;;8.64;97.36
16525;BME280;8375;33.594;-117.718;2023-04-08T11:58:45;100401.78;;;8.66;98.04
16525;BME280;8375;33.594;-117.718;2023-04-08T12:01:16;100399.28;;;8.64;98.53
16525;BME280;8375;33.594;-117.718;2023-04-08T12:03:57;100403.13;;;8.72;99.00
16525;BME280;8375;33.594;-117.718;2023-04-08T12:06:27;100405.41;;;8.76;99.05
16525;BME280;8375;33.594;-117.718;2023-04-08T12:08:57;100407.69;;;8.81;99.00
16525;BME280;8375;33.594;-117.718;2023-04-08T12:11:25;100410.19;;;8.83;98.68
16525;BME280;8375;33.594;-117.718;2023-04-08T12:13:54;100402.81;;;8.76;98.50
16525;BME280;8375;33.594;-117.718;2023-04-08T12:16:24;100410.47;;;8.78;98.37
16525;BME280;8375;33.594;-117.718;2023-04-08T12:18:53;100404.97;;;8.70;98.93
16525;BME280;8375;33.594;-117.718;2023-04-08T12:21:21;100404.25;;;8.68;98.62
16525;BME280;8375;33.594;-117.718;2023-04-08T12:23:50;100412.75;;;8.70;98.61
16525;BME280;8375;33.594;-117.718;2023-04-08T12:26:19;100409.41;;;8.68;98.66
16525;BME280;8375;33.594;-117.718;2023-04-08T12:28:47;100411.91;;;8.69;98.75
16525;BME280;8375;33.594;-117.718;2023-04-08T12:31:16;100418.13;;;8.66;98.94
16525;BME280;8375;33.594;-117.718;2023-04-08T12:33:46;100412.31;;;8.63;99.22
16525;BME280;8375;33.594;-117.718;2023-04-08T12:36:15;100414.06;;;8.62;99.05
16525;BME280;8375;33.594;-117.718;2023-04-08T12:38:43;100419.16;;;8.64;98.84
16525;BME280;8375;33.594;-117.718;2023-04-08T12:41:12;100411.47;;;8.62;98.33
16525;BME280;8375;33.594;-117.718;2023-04-08T12:43:41;100414.38;;;8.58;98.26
16525;BME280;8375;33.594;-117.718;2023-04-08T12:46:10;100415.41;;;8.55;98.55
16525;BME280;8375;33.594;-117.718;2023-04-08T12:48:39;100419.56;;;8.58;99.20